sensor_id;sensor_type;location;lat;lon;timestamp;pressure;altitude;pressure_sealevel;temperature;humidity
49583;BME280;36329;48.816;44.624;2023-02-14T00:01:41;100978;;;-3.8;76
49583;BME280;36329;48.816;44.624;2023-02-14T00:04:44;100977;;;-3.9;76.5
49583;BME280;36329;48.816;44.624;2023-02-14T00:07:47;100966;;;-3.7;76.1
49583;BME280;36329;48.816;44.624;2023-02-14T00:10:55;100958;;;-3.8;77
49583;BME280;36329;48.816;44.624;2023-02-14T00:14:05;100952;;;-3.6;77
49583;BME280;36329;48.816;44.624;2023-02-14T00:17:07;100949;;;-3.5;77.4
49583;BME280;36329;48.816;44.624;2023-02-14T00:20:10;100947;;;-3.5;76.9
49583;BME280;36329;48.816;44.624;2023-02-14T00:23:12;100937;;;-3.4;76.2
49583;BME280;36329;48.816;44.624;2023-02-14T00:26:15;100932;;;-3.4;76.9
49583;BME280;36329;48.816;44.624;2023-02-14T00:29:19;100927;;;-3.5;77.3
49583;BME280;36329;48.816;44.624;2023-02-14T00:32:23;100920;;;-3.7;78.4
49583;BME280;36329;48.816;44.624;2023-02-14T00:35:25;100910;;;-4;80
49583;BME280;36329;48.816;44.624;2023-02-14T00:38:27;100899;;;-4;81.9
49583;BME280;36329;48.816;44.624;2023-02-14T00:41:30;100889;;;-4.1;82.7
49583;BME280;36329;48.816;44.624;2023-02-14T00:44:38;100882;;;-4.1;85.4
49583;BME280;36329;48.816;44.624;2023-02-14T00:47:40;100868;;;-4.3;87.9
49583;BME280;36329;48.816;44.624;2023-02-14T00:50:42;100873;;;-4.2;90.1
49583;BME280;36329;48.816;44.624;2023-02-14T00:53:45;100874;;;-4.2;90.5
49583;BME280;36329;48.816;44.624;2023-02-14T00:56:48;100860;;;-4;90.6
49583;BME280;36329;48.816;44.624;2023-02-14T00:59:50;100872;;;-3.9;90.7
49583;BME280;36329;48.816;44.624;2023-02-14T01:02:53;100857;;;-3.6;89.5
49583;BME280;36329;48.816;44.624;2023-02-14T01:05:55;100850;;;-4;90.3
49583;BME280;36329;48.816;44.624;2023-02-14T01:08:58;100836;;;-4.2;92.5
49583;BME280;36329;48.816;44.624;2023-02-14T01:12:02;100834;;;-3.8;91.9
49583;BME280;36329;48.816;44.624;2023-02-14T01:15:05;100826;;;-3.8;90.9
49583;BME280;36329;48.816;44.624;2023-02-14T01:18:16;100830;;;-3.8;89.9
49583;BME280;36329;48.816;44.624;2023-02-14T01:21:26;100829;;;-3.9;91.1
49583;BME280;36329;48.816;44.624;2023-02-14T01:24:42;100813;;;-3.9;91.1
49583;BME280;36329;48.816;44.624;2023-02-14T01:27:45;100795;;;-3.8;91.7
49583;BME280;36329;48.816;44.624;2023-02-14T01:30:47;100796;;;-3.6;91.1
49583;BME280;36329;48.816;44.624;2023-02-14T01:33:56;100786;;;-3.7;91.2
49583;BME280;36329;48.816;44.624;2023-02-14T01:37:04;100778;;;-3.6;92.4
49583;BME280;36329;48.816;44.624;2023-02-14T01:40:10;100762;;;-3.8;93.4
49583;BME280;36329;48.816;44.624;2023-02-14T01:43:13;100757;;;-4;94.7
49583;BME280;36329;48.816;44.624;2023-02-14T01:46:16;100753;;;-3.8;95
49583;BME280;36329;48.816;44.624;2023-02-14T01:49:22;100740;;;-3.5;94.4
49583;BME280;36329;48.816;44.624;2023-02-14T01:52:44;100743;;;-3.6;93.9
49583;BME280;36329;48.816;44.624;2023-02-14T01:56:04;100734;;;-3.5;93.7
49583;BME280;36329;48.816;44.624;2023-02-14T01:59:23;100724;;;-3.5;94
49583;BME280;36329;48.816;44.624;2023-02-14T02:02:27;100717;;;-3.7;94.5
49583;BME280;36329;48.816;44.624;2023-02-14T02:05:30;100706;;;-3.7;96.2
49583;BME280;36329;48.816;44.624;2023-02-14T02:08:42;100709;;;-3.5;95.8
49583;BME280;36329;48.816;44.624;2023-02-14T02:11:49;100703;;;-3.1;94.6
49583;BME280;36329;48.816;44.624;2023-02-14T02:15:06;100693;;;-3.2;94.3
49583;BME280;36329;48.816;44.624;2023-02-14T02:18:14;100689;;;-3.1;94.7
49583;BME280;36329;48.816;44.624;2023-02-14T02:21:55;100675;;;-3.2;96.2
49583;BME280;36329;48.816;44.624;2023-02-14T02:25:10;100670;;;-3.3;96.6
49583;BME280;36329;48.816;44.624;2023-02-14T02:28:42;100666;;;-3.2;97.3
49583;BME280;36329;48.816;44.624;2023-02-14T02:32:00;100656;;;-3;96.9
49583;BME280;36329;48.816;44.624;2023-02-14T02:35:28;100645;;;-3;97.8
49583;BME280;36329;48.816;44.624;2023-02-14T02:38:50;100640;;;-3;97.3
49583;BME280;36329;48.816;44.624;2023-02-14T02:42:03;100631;;;-3;98.5
49583;BME280;36329;48.816;44.624;2023-02-14T02:45:12;100626;;;-2.8;98.1
49583;BME280;36329;48.816;44.624;2023-02-14T02:48:30;100606;;;-3.1;100
49583;BME280;36329;48.816;44.624;2023-02-14T02:51:47;100604;;;-3.1;100
49583;BME280;36329;48.816;44.624;2023-02-14T02:54:57;100592;;;-3.1;100
49583;BME280;36329;48.816;44.624;2023-02-14T02:58:03;100575;;;-3.2;100
49583;BME280;36329;48.816;44.624;2023-02-14T03:01:10;100574;;;-3;100
49583;BME280;36329;48.816;44.624;2023-02-14T03:04:15;100568;;;-3.1;100
49583;BME280;36329;48.816;44.624;2023-02-14T03:07:19;100567;;;-3.3;100
49583;BME280;36329;48.816;44.624;2023-02-14T03:10:23;100559;;;-3.3;100
49583;BME280;36329;48.816;44.624;2023-02-14T03:13:38;100551;;;-3.1;100
49583;BME280;36329;48.816;44.624;2023-02-14T03:16:50;100545;;;-3.5;100
49583;BME280;36329;48.816;44.624;2023-02-14T03:20:14;100526;;;-3.4;100
49583;BME280;36329;48.816;44.624;2023-02-14T03:23:28;100516;;;-3.3;100
49583;BME280;36329;48.816;44.624;2023-02-14T03:26:44;100515;;;-3.4;100
49583;BME280;36329;48.816;44.624;2023-02-14T03:29:55;100507;;;-3.5;100
49583;BME280;36329;48.816;44.624;2023-02-14T03:33:02;100507;;;-3.5;100
49583;BME280;36329;48.816;44.624;2023-02-14T03:36:12;100505;;;-3.4;100
49583;BME280;36329;48.816;44.624;2023-02-14T03:39:29;100497;;;-3.5;100
49583;BME280;36329;48.816;44.624;2023-02-14T03:42:39;100491;;;-3.5;100
49583;BME280;36329;48.816;44.624;2023-02-14T03:45:49;100486;;;-3.5;100
49583;BME280;36329;48.816;44.624;2023-02-14T03:48:57;100484;;;-3.5;100
49583;BME280;36329;48.816;44.624;2023-02-14T03:52:13;100485;;;-3.3;100
49583;BME280;36329;48.816;44.624;2023-02-14T03:55:19;100471;;;-3.2;100
49583;BME280;36329;48.816;44.624;2023-02-14T03:58:37;100468;;;-3.2;100
49583;BME280;36329;48.816;44.624;2023-02-14T04:01:54;100460;;;-3.1;100
49583;BME280;36329;48.816;44.624;2023-02-14T04:05:00;100454;;;-3.1;100
49583;BME280;36329;48.816;44.624;2023-02-14T04:08:27;100452;;;-3.1;100
49583;BME280;36329;48.816;44.624;2023-02-14T04:11:38;100439;;;-3.3;100
49583;BME280;36329;48.816;44.624;2023-02-14T04:15:01;100431;;;-3.1;100
49583;BME280;36329;48.816;44.624;2023-02-14T04:18:15;100431;;;-3.1;100
49583;BME280;36329;48.816;44.624;2023-02-14T04:21:18;100419;;;-2.8;100
49583;BME280;36329;48.816;44.624;2023-02-14T04:24:24;100414;;;-3;100
49583;BME280;36329;48.816;44.624;2023-02-14T04:27:27;100412;;;-2.9;100
49583;BME280;36329;48.816;44.624;2023-02-14T04:30:45;100402;;;-2.9;100
49583;BME280;36329;48.816;44.624;2023-02-14T04:33:50;100399;;;-2.9;100
49583;BME280;36329;48.816;44.624;2023-02-14T04:37:03;100393;;;-2.6;100
49583;BME280;36329;48.816;44.624;2023-02-14T04:40:07;100392;;;-2.6;100
49583;BME280;36329;48.816;44.624;2023-02-14T04:43:20;100385;;;-2.6;100
49583;BME280;36329;48.816;44.624;2023-02-14T04:46:24;100383;;;-2.6;100
49583;BME280;36329;48.816;44.624;2023-02-14T04:49:38;100373;;;-2.4;100
49583;BME280;36329;48.816;44.624;2023-02-14T04:52:51;100380;;;-2.5;100
49583;BME280;36329;48.816;44.624;2023-02-14T04:55:55;100373;;;-2.4;100
49583;BME280;36329;48.816;44.624;2023-02-14T04:59:11;100370;;;-2.4;100
49583;BME280;36329;48.816;44.624;2023-02-14T05:02:15;100361;;;-2.3;100
49583;BME280;36329;48.816;44.624;2023-02-14T05:05:23;100350;;;-2.3;100
49583;BME280;36329;48.816;44.624;2023-02-14T05:08:33;100350;;;-2.2;100
49583;BME280;36329;48.816;44.624;2023-02-14T05:11:41;100340;;;-2.3;100
49583;BME280;36329;48.816;44.624;2023-02-14T05:14:51;100340;;;-2.4;100
49583;BME280;36329;48.816;44.624;2023-02-14T05:18:06;100329;;;-2.2;100
49583;BME280;36329;48.816;44.624;2023-02-14T05:21:14;100325;;;-2;100
49583;BME280;36329;48.816;44.624;2023-02-14T05:24:36;100313;;;-2;100
49583;BME280;36329;48.816;44.624;2023-02-14T05:27:52;100317;;;-2;100
49583;BME280;36329;48.816;44.624;2023-02-14T05:31:09;100314;;;-2.1;100
49583;BME280;36329;48.816;44.624;2023-02-14T05:34:34;100304;;;-2.2;100
49583;BME280;36329;48.816;44.624;2023-02-14T05:37:50;100295;;;-2;100
49583;BME280;36329;48.816;44.624;2023-02-14T05:41:18;100291;;;-2;100
49583;BME280;36329;48.816;44.624;2023-02-14T05:44:22;100284;;;-2;100
49583;BME280;36329;48.816;44.624;2023-02-14T05:47:40;100271;;;-1.9;100
49583;BME280;36329;48.816;44.624;2023-02-14T05:50:51;100265;;;-1.9;100
49583;BME280;36329;48.816;44.624;2023-02-14T05:54:01;100264;;;-1.8;100
49583;BME280;36329;48.816;44.624;2023-02-14T05:57:09;100259;;;-1.6;100
49583;BME280;36329;48.816;44.624;2023-02-14T06:00:15;100254;;;-1.8;100
49583;BME280;36329;48.816;44.624;2023-02-14T06:03:35;100248;;;-1.7;100
49583;BME280;36329;48.816;44.624;2023-02-14T06:06:44;100247;;;-1.7;100
49583;BME280;36329;48.816;44.624;2023-02-14T06:09:58;100241;;;-1.7;100
49583;BME280;36329;48.816;44.624;2023-02-14T06:13:01;100233;;;-1.5;100
49583;BME280;36329;48.816;44.624;2023-02-14T06:16:10;100230;;;-1.5;100
49583;BME280;36329;48.816;44.624;2023-02-14T06:19:26;100213;;;-1.1;100
49583;BME280;36329;48.816;44.624;2023-02-14T06:23:06;100207;;;-1.2;100
49583;BME280;36329;48.816;44.624;2023-02-14T06:26:25;100199;;;-1;100
49583;BME280;36329;48.816;44.624;2023-02-14T06:29:34;100196;;;-1;100
49583;BME280;36329;48.816;44.624;2023-02-14T06:32:50;100185;;;-0.8;100
49583;BME280;36329;48.816;44.624;2023-02-14T06:36:03;100177;;;-0.7;100
49583;BME280;36329;48.816;44.624;2023-02-14T06:39:06;100172;;;-0.7;100
49583;BME280;36329;48.816;44.624;2023-02-14T06:42:15;100164;;;-0.7;100
49583;BME280;36329;48.816;44.624;2023-02-14T06:45:25;100158;;;-0.4;100
49583;BME280;36329;48.816;44.624;2023-02-14T06:48:28;100151;;;-0.5;100
49583;BME280;36329;48.816;44.624;2023-02-14T06:51:42;100143;;;-0.5;100
49583;BME280;36329;48.816;44.624;2023-02-14T06:54:55;100141;;;-0.4;100
49583;BME280;36329;48.816;44.624;2023-02-14T06:58:11;100139;;;-0.3;100
49583;BME280;36329;48.816;44.624;2023-02-14T07:01:42;100127;;;-0.2;100
49583;BME280;36329;48.816;44.624;2023-02-14T07:04:59;100127;;;-0.2;100
49583;BME280;36329;48.816;44.624;2023-02-14T07:08:20;100113;;;-0.2;100
49583;BME280;36329;48.816;44.624;2023-02-14T07:11:47;100110;;;0;100
49583;BME280;36329;48.816;44.624;2023-02-14T07:15:02;100102;;;0.3;100
49583;BME280;36329;48.816;44.624;2023-02-14T07:18:28;100094;;;0.4;100
49583;BME280;36329;48.816;44.624;2023-02-14T07:21:48;100090;;;0.2;100
49583;BME280;36329;48.816;44.624;2023-02-14T07:24:54;100088;;;0.5;100
49583;BME280;36329;48.816;44.624;2023-02-14T07:27:59;100082;;;0.2;100
49583;BME280;36329;48.816;44.624;2023-02-14T07:31:01;100067;;;0.7;100
49583;BME280;36329;48.816;44.624;2023-02-14T07:34:20;100072;;;0.8;100
49583;BME280;36329;48.816;44.624;2023-02-14T07:37:35;100059;;;0.6;100
49583;BME280;36329;48.816;44.624;2023-02-14T07:40:38;100055;;;0.6;100
49583;BME280;36329;48.816;44.624;2023-02-14T07:43:47;100053;;;0.6;100
49583;BME280;36329;48.816;44.624;2023-02-14T07:46:54;100052;;;0.8;100
49583;BME280;36329;48.816;44.624;2023-02-14T07:50:08;100049;;;0.9;100
49583;BME280;36329;48.816;44.624;2023-02-14T07:53:19;100048;;;1;100
49583;BME280;36329;48.816;44.624;2023-02-14T07:56:30;100036;;;1.4;100
49583;BME280;36329;48.816;44.624;2023-02-14T07:59:55;100039;;;1.6;100
49583;BME280;36329;48.816;44.624;2023-02-14T08:03:00;100028;;;1.4;100
49583;BME280;36329;48.816;44.624;2023-02-14T08:06:19;100022;;;1.4;100
49583;BME280;36329;48.816;44.624;2023-02-14T08:09:27;100017;;;1.2;100
49583;BME280;36329;48.816;44.624;2023-02-14T08:13:03;100010;;;1.3;100
49583;BME280;36329;48.816;44.624;2023-02-14T08:16:36;100026;;;1.9;100
49583;BME280;36329;48.816;44.624;2023-02-14T08:19:54;100016;;;2.1;99.8
49583;BME280;36329;48.816;44.624;2023-02-14T08:23:21;100006;;;2;100
49583;BME280;36329;48.816;44.624;2023-02-14T08:26:37;99998;;;2;100
49583;BME280;36329;48.816;44.624;2023-02-14T08:29:58;99996;;;2.2;100
49583;BME280;36329;48.816;44.624;2023-02-14T08:33:11;100007;;;2.2;99.3
49583;BME280;36329;48.816;44.624;2023-02-14T08:36:40;99997;;;2.1;99.8
49583;BME280;36329;48.816;44.624;2023-02-14T08:39:50;99989;;;2.1;100
49583;BME280;36329;48.816;44.624;2023-02-14T08:42:52;99982;;;2.2;99.8
49583;BME280;36329;48.816;44.624;2023-02-14T08:45:57;99991;;;2.1;100
49583;BME280;36329;48.816;44.624;2023-02-14T08:49:04;99981;;;1.9;99.9
49583;BME280;36329;48.816;44.624;2023-02-14T08:52:10;99990;;;2;100
49583;BME280;36329;48.816;44.624;2023-02-14T08:55:12;99980;;;2.1;100
49583;BME280;36329;48.816;44.624;2023-02-14T08:58:26;99983;;;2.1;100
49583;BME280;36329;48.816;44.624;2023-02-14T09:01:29;99977;;;1.9;100
49583;BME280;36329;48.816;44.624;2023-02-14T09:04:48;99977;;;1.9;100
49583;BME280;36329;48.816;44.624;2023-02-14T09:07:52;99967;;;1.9;100
49583;BME280;36329;48.816;44.624;2023-02-14T09:11:07;99970;;;1.6;100
49583;BME280;36329;48.816;44.624;2023-02-14T09:14:16;99975;;;2;100
49583;BME280;36329;48.816;44.624;2023-02-14T09:17:25;99969;;;1.9;100
49583;BME280;36329;48.816;44.624;2023-02-14T09:20:41;99968;;;1.8;100
49583;BME280;36329;48.816;44.624;2023-02-14T09:23:48;99967;;;2;100
49583;BME280;36329;48.816;44.624;2023-02-14T09:27:03;99959;;;1.8;100
49583;BME280;36329;48.816;44.624;2023-02-14T09:30:15;99954;;;2;100
49583;BME280;36329;48.816;44.624;2023-02-14T09:33:38;99946;;;2.1;100
49583;BME280;36329;48.816;44.624;2023-02-14T09:36:42;99948;;;2.3;100
49583;BME280;36329;48.816;44.624;2023-02-14T09:39:56;99942;;;2.5;100
49583;BME280;36329;48.816;44.624;2023-02-14T09:43:21;99947;;;2.5;100
49583;BME280;36329;48.816;44.624;2023-02-14T09:46:47;99939;;;2.5;100
49583;BME280;36329;48.816;44.624;2023-02-14T09:50:15;99932;;;2.4;100
49583;BME280;36329;48.816;44.624;2023-02-14T09:53:21;99932;;;2.6;100
49583;BME280;36329;48.816;44.624;2023-02-14T09:56:57;99917;;;2.9;98.5
49583;BME280;36329;48.816;44.624;2023-02-14T10:00:22;99910;;;2.7;98.8
49583;BME280;36329;48.816;44.624;2023-02-14T10:07:26;99913;;;2.9;98.8
49583;BME280;36329;48.816;44.624;2023-02-14T10:11:02;99906;;;2.5;100
49583;BME280;36329;48.816;44.624;2023-02-14T10:14:26;99906;;;2.2;100
49583;BME280;36329;48.816;44.624;2023-02-14T10:21:28;99907;;;2.4;100
49583;BME280;36329;48.816;44.624;2023-02-14T10:24:42;99902;;;2.5;100
49583;BME280;36329;48.816;44.624;2023-02-14T10:27:47;99906;;;2.5;100
49583;BME280;36329;48.816;44.624;2023-02-14T10:31:23;99900;;;2.5;100
49583;BME280;36329;48.816;44.624;2023-02-14T10:34:59;99902;;;2.7;100
49583;BME280;36329;48.816;44.624;2023-02-14T10:38:37;99901;;;2.6;100
49583;BME280;36329;48.816;44.624;2023-02-14T10:41:48;99905;;;2.3;100
49583;BME280;36329;48.816;44.624;2023-02-14T10:45:04;99904;;;2.3;100
49583;BME280;36329;48.816;44.624;2023-02-14T10:48:37;99898;;;2.3;100
49583;BME280;36329;48.816;44.624;2023-02-14T10:51:48;99900;;;2.3;100
49583;BME280;36329;48.816;44.624;2023-02-14T10:54:55;99901;;;2.2;100
49583;BME280;36329;48.816;44.624;2023-02-14T10:58:02;99901;;;2.3;100
49583;BME280;36329;48.816;44.624;2023-02-14T11:01:16;99904;;;2.4;100
49583;BME280;36329;48.816;44.624;2023-02-14T11:04:54;99891;;;2.3;100
49583;BME280;36329;48.816;44.624;2023-02-14T11:08:12;99903;;;2.5;100
49583;BME280;36329;48.816;44.624;2023-02-14T11:11:49;99899;;;2.3;100
49583;BME280;36329;48.816;44.624;2023-02-14T11:15:26;99891;;;2.3;100
49583;BME280;36329;48.816;44.624;2023-02-14T11:18:52;99903;;;2.2;100
49583;BME280;36329;48.816;44.624;2023-02-14T11:22:33;99888;;;2.1;100
49583;BME280;36329;48.816;44.624;2023-02-14T11:25:40;99893;;;2.2;100
49583;BME280;36329;48.816;44.624;2023-02-14T11:28:52;99887;;;2.2;100
49583;BME280;36329;48.816;44.624;2023-02-14T11:32:14;99883;;;2.4;100
49583;BME280;36329;48.816;44.624;2023-02-14T11:35:21;99881;;;2.5;100
49583;BME280;36329;48.816;44.624;2023-02-14T11:38:32;99880;;;2.4;100
49583;BME280;36329;48.816;44.624;2023-02-14T11:41:53;99877;;;2.4;100
49583;BME280;36329;48.816;44.624;2023-02-14T11:48:38;99882;;;2.5;100
49583;BME280;36329;48.816;44.624;2023-02-14T11:51:42;99882;;;2.6;100
49583;BME280;36329;48.816;44.624;2023-02-14T11:55:00;99890;;;2.6;100
49583;BME280;36329;48.816;44.624;2023-02-14T11:58:43;99891;;;2.6;100
49583;BME280;36329;48.816;44.624;2023-02-14T12:02:12;99891;;;2.5;100
49583;BME280;36329;48.816;44.624;2023-02-14T12:05:27;99893;;;2.5;100
49583;BME280;36329;48.816;44.624;2023-02-14T12:09:15;99888;;;2.5;100
49583;BME280;36329;48.816;44.624;2023-02-14T12:12:25;99885;;;2.7;100
49583;BME280;36329;48.816;44.624;2023-02-14T12:15:48;99875;;;3.3;100
49583;BME280;36329;48.816;44.624;2023-02-14T12:18:58;99881;;;3.5;100
49583;BME280;36329;48.816;44.624;2023-02-14T12:22:48;99875;;;3.8;98.5
49583;BME280;36329;48.816;44.624;2023-02-14T12:26:05;99879;;;3.6;98.7
49583;BME280;36329;48.816;44.624;2023-02-14T12:29:42;99875;;;4;100
49583;BME280;36329;48.816;44.624;2023-02-14T12:32:56;99882;;;4;97
49583;BME280;36329;48.816;44.624;2023-02-14T12:36:27;99882;;;3.5;97.7
49583;BME280;36329;48.816;44.624;2023-02-14T12:40:11;99883;;;3.4;100
49583;BME280;36329;48.816;44.624;2023-02-14T12:43:51;99878;;;3.7;100
49583;BME280;36329;48.816;44.624;2023-02-14T12:47:15;99875;;;3.7;100
49583;BME280;36329;48.816;44.624;2023-02-14T12:50:46;99865;;;3.3;100
49583;BME280;36329;48.816;44.624;2023-02-14T12:54:34;99866;;;3.3;100
49583;BME280;36329;48.816;44.624;2023-02-14T12:58:03;99859;;;3.6;100
49583;BME280;36329;48.816;44.624;2023-02-14T13:05:15;99863;;;3.7;100
49583;BME280;36329;48.816;44.624;2023-02-14T13:09:00;99858;;;3.4;100
49583;BME280;36329;48.816;44.624;2023-02-14T13:12:30;99847;;;3.1;100
49583;BME280;36329;48.816;44.624;2023-02-14T13:16:10;99853;;;3.3;100
49583;BME280;36329;48.816;44.624;2023-02-14T13:23:02;99855;;;3.5;100
49583;BME280;36329;48.816;44.624;2023-02-14T13:26:36;99861;;;3;100
49583;BME280;36329;48.816;44.624;2023-02-14T13:30:17;99864;;;3.4;100
49583;BME280;36329;48.816;44.624;2023-02-14T13:33:39;99859;;;3.5;100
49583;BME280;36329;48.816;44.624;2023-02-14T13:37:05;99866;;;3.3;100
49583;BME280;36329;48.816;44.624;2023-02-14T13:40:19;99869;;;3.2;100
49583;BME280;36329;48.816;44.624;2023-02-14T13:43:53;99865;;;3.5;100
49583;BME280;36329;48.816;44.624;2023-02-14T13:47:25;99869;;;3.3;100
49583;BME280;36329;48.816;44.624;2023-02-14T13:50:53;99875;;;2.8;100
49583;BME280;36329;48.816;44.624;2023-02-14T13:53:57;99881;;;2.6;100
49583;BME280;36329;48.816;44.624;2023-02-14T13:57:28;99877;;;2.4;100
49583;BME280;36329;48.816;44.624;2023-02-14T14:00:58;99884;;;2.5;100
49583;BME280;36329;48.816;44.624;2023-02-14T14:04:40;99887;;;2.6;100
49583;BME280;36329;48.816;44.624;2023-02-14T14:15:35;99899;;;2.5;100
49583;BME280;36329;48.816;44.624;2023-02-14T14:18:41;99908;;;2.6;100
49583;BME280;36329;48.816;44.624;2023-02-14T14:22:08;99904;;;2.5;100
49583;BME280;36329;48.816;44.624;2023-02-14T14:25:58;99910;;;2.5;100
49583;BME280;36329;48.816;44.624;2023-02-14T14:29:52;99917;;;2.8;100
49583;BME280;36329;48.816;44.624;2023-02-14T14:33:35;99916;;;2.9;100
49583;BME280;36329;48.816;44.624;2023-02-14T14:37:05;99923;;;2.8;100
49583;BME280;36329;48.816;44.624;2023-02-14T14:40:44;99927;;;2.9;100
49583;BME280;36329;48.816;44.624;2023-02-14T14:44:19;99926;;;2.7;100
49583;BME280;36329;48.816;44.624;2023-02-14T14:47:53;99926;;;2.8;100
49583;BME280;36329;48.816;44.624;2023-02-14T14:51:28;99931;;;2.7;100
49583;BME280;36329;48.816;44.624;2023-02-14T14:55:18;99940;;;2.7;100
49583;BME280;36329;48.816;44.624;2023-02-14T14:58:40;99940;;;2.8;100
49583;BME280;36329;48.816;44.624;2023-02-14T15:02:25;99946;;;2.7;100
49583;BME280;36329;48.816;44.624;2023-02-14T15:05:50;99954;;;2.7;100
49583;BME280;36329;48.816;44.624;2023-02-14T15:09:40;99953;;;2.7;100
49583;BME280;36329;48.816;44.624;2023-02-14T15:13:03;99957;;;2.7;100
49583;BME280;36329;48.816;44.624;2023-02-14T15:16:26;99958;;;2.5;100
49583;BME280;36329;48.816;44.624;2023-02-14T15:19:43;99955;;;2.6;100
49583;BME280;36329;48.816;44.624;2023-02-14T15:23:05;99963;;;2.7;100
49583;BME280;36329;48.816;44.624;2023-02-14T15:26:44;99964;;;2.5;100
49583;BME280;36329;48.816;44.624;2023-02-14T15:29:58;99965;;;2.6;100
49583;BME280;36329;48.816;44.624;2023-02-14T15:33:06;99974;;;2.7;100
49583;BME280;36329;48.816;44.624;2023-02-14T15:36:30;99969;;;2.8;100
49583;BME280;36329;48.816;44.624;2023-02-14T15:39:43;99970;;;2.7;100
49583;BME280;36329;48.816;44.624;2023-02-14T15:43:22;99971;;;2.7;100
49583;BME280;36329;48.816;44.624;2023-02-14T15:46:55;99979;;;2.7;100
49583;BME280;36329;48.816;44.624;2023-02-14T15:50:13;99980;;;2.6;100
49583;BME280;36329;48.816;44.624;2023-02-14T15:53:52;99977;;;2.5;100
49583;BME280;36329;48.816;44.624;2023-02-14T15:57:25;99979;;;2.5;100
49583;BME280;36329;48.816;44.624;2023-02-14T16:00:49;99974;;;2.5;100
49583;BME280;36329;48.816;44.624;2023-02-14T16:04:32;99972;;;2.4;100
49583;BME280;36329;48.816;44.624;2023-02-14T16:07:58;99975;;;2.5;100
49583;BME280;36329;48.816;44.624;2023-02-14T16:11:26;99973;;;2.4;100
49583;BME280;36329;48.816;44.624;2023-02-14T16:15:16;99980;;;2.4;100
49583;BME280;36329;48.816;44.624;2023-02-14T16:18:47;99977;;;2.4;100
49583;BME280;36329;48.816;44.624;2023-02-14T16:22:04;99983;;;2.4;100
49583;BME280;36329;48.816;44.624;2023-02-14T16:25:15;99983;;;2.5;100
49583;BME280;36329;48.816;44.624;2023-02-14T16:28:37;99985;;;2.5;99.9
49583;BME280;36329;48.816;44.624;2023-02-14T16:31:54;99987;;;2.4;99.8
49583;BME280;36329;48.816;44.624;2023-02-14T16:35:45;99992;;;2.5;98.9
49583;BME280;36329;48.816;44.624;2023-02-14T16:39:15;99995;;;2.5;98.4
49583;BME280;36329;48.816;44.624;2023-02-14T16:42:43;99991;;;2.4;98.1
49583;BME280;36329;48.816;44.624;2023-02-14T16:45:56;99998;;;2.6;97.4
49583;BME280;36329;48.816;44.624;2023-02-14T16:49:34;99997;;;2.7;96.8
49583;BME280;36329;48.816;44.624;2023-02-14T16:52:54;99995;;;2.7;96
49583;BME280;36329;48.816;44.624;2023-02-14T16:56:44;99993;;;2.5;96.5
49583;BME280;36329;48.816;44.624;2023-02-14T17:00:07;99990;;;2.5;97.3
49583;BME280;36329;48.816;44.624;2023-02-14T17:03:11;99989;;;2.4;97.4
49583;BME280;36329;48.816;44.624;2023-02-14T17:06:29;99993;;;2.3;97.9
49583;BME280;36329;48.816;44.624;2023-02-14T17:09:58;99994;;;2.4;97.3
49583;BME280;36329;48.816;44.624;2023-02-14T17:13:14;99993;;;2.4;96.7
49583;BME280;36329;48.816;44.624;2023-02-14T17:16:31;99999;;;2.5;96.6
49583;BME280;36329;48.816;44.624;2023-02-14T17:19:51;99992;;;2.4;95.4
49583;BME280;36329;48.816;44.624;2023-02-14T17:23:24;99993;;;2.3;95.4
49583;BME280;36329;48.816;44.624;2023-02-14T17:27:01;100004;;;2.4;95.8
49583;BME280;36329;48.816;44.624;2023-02-14T17:30:20;99998;;;2.4;95.4
49583;BME280;36329;48.816;44.624;2023-02-14T17:33:38;100001;;;2.3;95.3
49583;BME280;36329;48.816;44.624;2023-02-14T17:36:56;100003;;;2.3;94.8
49583;BME280;36329;48.816;44.624;2023-02-14T17:40:12;100003;;;2.3;95.1
49583;BME280;36329;48.816;44.624;2023-02-14T17:43:38;100006;;;2.4;94.8
49583;BME280;36329;48.816;44.624;2023-02-14T17:47:01;100006;;;2.4;94.1
49583;BME280;36329;48.816;44.624;2023-02-14T17:50:25;100006;;;2.4;94.2
49583;BME280;36329;48.816;44.624;2023-02-14T17:53:57;100004;;;2.5;93.6
49583;BME280;36329;48.816;44.624;2023-02-14T17:57:23;100010;;;2.5;92.3
49583;BME280;36329;48.816;44.624;2023-02-14T18:01:09;100010;;;2.5;92.7
49583;BME280;36329;48.816;44.624;2023-02-14T18:04:26;100009;;;2.3;92.6
49583;BME280;36329;48.816;44.624;2023-02-14T18:07:49;100013;;;2.3;92.6
49583;BME280;36329;48.816;44.624;2023-02-14T18:10:55;100019;;;2.3;92.2
49583;BME280;36329;48.816;44.624;2023-02-14T18:14:16;100021;;;2.1;92.2
49583;BME280;36329;48.816;44.624;2023-02-14T18:17:23;100023;;;2.2;92.4
49583;BME280;36329;48.816;44.624;2023-02-14T18:20:51;100022;;;2.3;92
49583;BME280;36329;48.816;44.624;2023-02-14T18:24:06;100031;;;2.3;92.3
49583;BME280;36329;48.816;44.624;2023-02-14T18:27:15;100024;;;2.4;91
49583;BME280;36329;48.816;44.624;2023-02-14T18:30:43;100033;;;2.2;91.6
49583;BME280;36329;48.816;44.624;2023-02-14T18:33:59;100030;;;2.3;91.7
49583;BME280;36329;48.816;44.624;2023-02-14T18:37:10;100036;;;2.3;91.6
49583;BME280;36329;48.816;44.624;2023-02-14T18:40:32;100031;;;2.3;91.5
49583;BME280;36329;48.816;44.624;2023-02-14T18:43:51;100029;;;2.2;91.3
49583;BME280;36329;48.816;44.624;2023-02-14T18:47:08;100032;;;2.1;91.1
49583;BME280;36329;48.816;44.624;2023-02-14T18:50:32;100034;;;2.2;91.4
49583;BME280;36329;48.816;44.624;2023-02-14T18:53:44;100038;;;2.2;90.9
49583;BME280;36329;48.816;44.624;2023-02-14T18:57:03;100042;;;1.9;91.7
49583;BME280;36329;48.816;44.624;2023-02-14T19:00:25;100037;;;1.9;92.2
49583;BME280;36329;48.816;44.624;2023-02-14T19:03:39;100034;;;1.8;92.6
49583;BME280;36329;48.816;44.624;2023-02-14T19:06:53;100040;;;1.7;93.4
49583;BME280;36329;48.816;44.624;2023-02-14T19:10:10;100033;;;1.8;93.1